Terminal Aerodrome Forecast
Issued by NWS

Home | Current Version | Previous Version | Text Only | Print | Product List | Glossary On
Versions: 1 2 3 4 5 6 7 8 9 10 11 12 13 14 15 16 17 18 19 20
000
FTUS41 KRLX 251700
TAFCKB
TAF
KCKB 251730Z 2518/2618 22005KT P6SM OVC040
     FM252300 VRB03KT 3SM -RA BR OVC040
     FM260200 VRB03KT 3SM -RASNPL BR OVC040
     FM260600 VRB03KT 2SM -RASNPL BR OVC020
     FM260800 VRB03KT 2SM -SN BR OVC010
     FM261300 09004KT 2SM -RASN BR OVC006=

USA.gov is the U.S. government's official web portal to all federal, state and local government web resources and services.